Hyundai Dominion — A8IK7 — position and weather

sailwx.info

Track history (hours):
 
Tides and Currents Weather Stations Pressure Air Temp Water Temp Dewpoint Dewpoint Depression Visibility Wind Speed Wind Dir Waves Ship Positions

Hyundai Dominion

Last reported at 2015-Jul-30 13:27 UTC. Time now 2015-Jul-30 20:14 UTC.
Position N 29°53' E 122°04'.

Length 304 m; draft 13.6 m.

Type: Ship (hazmat cat A). MMSI: 636090990.

Date/timePositionNaut miles runAvg speedWind from/ knotsBaromVisibWave heightAir tempDewpointWater temp
2015-Jul-30 13:27N 29°53' E 122°04'3 3.3
2015-Jul-30 12:33N 29°56' E 122°06'1311.5
2015-Jul-30 11:23N 29°46' E 122°17'7 2.6
2015-Jul-30 08:32N 29°42' E 122°24'2 0.3
2015-Jul-30 00:21N 29°40' E 122°25'0 0.2
2015-Jul-29 23:18N 29°40' E 122°25'8 9.2
2015-Jul-29 22:26N 29°40' E 122°34'1211.9
2015-Jul-29 21:25N 29°48' E 122°45'1112.0
2015-Jul-29 20:32N 29°55' E 122°53'1211.7
2015-Jul-29 19:33N 30°03' E 123°03'4511.0
2015-Jul-29 15:29N 30°33' E 123°42'4511.2
2015-Jul-29 11:30N 31°03' E 124°20'1312.3
2015-Jul-29 10:26N 31°12' E 124°31'1213.0
2015-Jul-29 09:33N 31°20' E 124°41'1413.6
2015-Jul-29 08:33N 31°29' E 124°53'1813.7
2015-Jul-29 07:15N 31°41' E 125°09'1013.4
2015-Jul-29 06:32N 31°48' E 125°17'16612.6
2015-Jul-28 17:21N 33°39' E 127°43'  
2015-Jul-22 16:33N 38°35' E 122°05'20 1.0
2015-Jul-21 21:31N 38°52' E 121°52'1313.7
2015-Jul-21 20:33N 38°39' E 121°47'9 9.0
2015-Jul-21 19:32N 38°30' E 121°43'1212.2
2015-Jul-21 18:32N 38°30' E 121°28'17513.3
2015-Jul-21 05:26N 38°60' E 117°47'0 0.0
2015-Jul-21 04:32N 38°60' E 117°47'0 0.0
2015-Jul-21 03:32N 38°60' E 117°47'0 0.0
2015-Jul-21 02:32N 38°60' E 117°47'0 0.0
2015-Jul-21 01:20N 38°60' E 117°47'0 0.0
2015-Jul-21 00:32N 38°60' E 117°47'0 0.0
2015-Jul-20 23:32N 38°60' E 117°47'0 0.0
2015-Jul-20 22:20N 38°60' E 117°47'0 0.1
2015-Jul-20 21:32N 38°60' E 117°47'0 0.0
2015-Jul-20 20:32N 38°60' E 117°47'0 0.0
2015-Jul-20 19:32N 38°60' E 117°47'0 0.0
2015-Jul-20 18:32N 38°60' E 117°47'0 0.0
2015-Jul-20 17:32N 38°60' E 117°47'0 0.0
2015-Jul-20 16:32N 38°60' E 117°47'0 0.0
2015-Jul-20 15:32N 38°60' E 117°47'0 0.0
2015-Jul-20 14:32N 38°60' E 117°47'  
Track history (hours):
 
Tides and Currents Weather Stations Pressure Air Temp Water Temp Dewpoint Dewpoint Depression Visibility Wind Speed Wind Dir Waves Ship Positions

Hyundai Dominion

Last reported at 2015-Jul-30 13:27 UTC. Time now 2015-Jul-30 20:14 UTC.
Position N 29°53' E 122°04'.

Length 304 m; draft 13.6 m.

Type: Ship (hazmat cat A). MMSI: 636090990.

Date/timePositionNaut miles runAvg speedWind from/ knotsBaromVisibWave heightAir tempDewpointWater temp
2015-Jul-30 13:27N 29°53' E 122°04'3 3.3
2015-Jul-30 12:33N 29°56' E 122°06'1311.5
2015-Jul-30 11:23N 29°46' E 122°17'7 2.6
2015-Jul-30 08:32N 29°42' E 122°24'2 0.3
2015-Jul-30 00:21N 29°40' E 122°25'0 0.2
2015-Jul-29 23:18N 29°40' E 122°25'8 9.2
2015-Jul-29 22:26N 29°40' E 122°34'1211.9
2015-Jul-29 21:25N 29°48' E 122°45'1112.0
2015-Jul-29 20:32N 29°55' E 122°53'1211.7
2015-Jul-29 19:33N 30°03' E 123°03'4511.0
2015-Jul-29 15:29N 30°33' E 123°42'4511.2
2015-Jul-29 11:30N 31°03' E 124°20'1312.3
2015-Jul-29 10:26N 31°12' E 124°31'1213.0
2015-Jul-29 09:33N 31°20' E 124°41'1413.6
2015-Jul-29 08:33N 31°29' E 124°53'1813.7
2015-Jul-29 07:15N 31°41' E 125°09'1013.4
2015-Jul-29 06:32N 31°48' E 125°17'16612.6
2015-Jul-28 17:21N 33°39' E 127°43'  
2015-Jul-22 16:33N 38°35' E 122°05'20 1.0
2015-Jul-21 21:31N 38°52' E 121°52'1313.7
2015-Jul-21 20:33N 38°39' E 121°47'9 9.0
2015-Jul-21 19:32N 38°30' E 121°43'1212.2
2015-Jul-21 18:32N 38°30' E 121°28'17513.3
2015-Jul-21 05:26N 38°60' E 117°47'0 0.0
2015-Jul-21 04:32N 38°60' E 117°47'0 0.0
2015-Jul-21 03:32N 38°60' E 117°47'0 0.0
2015-Jul-21 02:32N 38°60' E 117°47'0 0.0
2015-Jul-21 01:20N 38°60' E 117°47'0 0.0
2015-Jul-21 00:32N 38°60' E 117°47'0 0.0
2015-Jul-20 23:32N 38°60' E 117°47'0 0.0
2015-Jul-20 22:20N 38°60' E 117°47'0 0.1
2015-Jul-20 21:32N 38°60' E 117°47'0 0.0
2015-Jul-20 20:32N 38°60' E 117°47'0 0.0
2015-Jul-20 19:32N 38°60' E 117°47'0 0.0
2015-Jul-20 18:32N 38°60' E 117°47'0 0.0
2015-Jul-20 17:32N 38°60' E 117°47'0 0.0
2015-Jul-20 16:32N 38°60' E 117°47'0 0.0
2015-Jul-20 15:32N 38°60' E 117°47'0 0.0
2015-Jul-20 14:32N 38°60' E 117°47'  

Dump ship's entire track history